Time;durP1;ratioP1;P1;durP2;ratioP2;P2;SDS_P1;SDS_P2;PMS_P1;PMS_P2;Temp;Humidity;BMP_temperature;BMP_pressure;BME280_temperature;BME280_humidity;BME280_pressure;Samples;Min_cycle;Max_cycle;Signal;HPM_P1;HPM_P2
2022/06/16 00:00:20;;;;;;;4.37;3.37;;;20.40;99.90;;;;;;5070897;28;20479;-76
2022/06/16 00:02:50;;;;;;;7.97;3.87;;;20.30;99.90;;;;;;5070969;28;21011;-76
2022/06/16 00:05:19;;;;;;;4.60;3.50;;;20.30;99.90;;;;;;5089556;28;20548;-76
2022/06/16 00:07:46;;;;;;;6.67;3.87;;;20.30;99.90;;;;;;5073730;28;20857;-76
2022/06/16 00:10:13;;;;;;;4.10;3.70;;;20.30;99.90;;;;;;5075777;28;20499;-76
2022/06/16 00:12:41;;;;;;;5.20;3.80;;;20.30;99.90;;;;;;5074831;28;20481;-76
2022/06/16 00:15:11;;;;;;;4.60;3.57;;;20.30;99.90;;;;;;5089131;28;20446;-76
2022/06/16 00:17:39;;;;;;;4.50;3.70;;;20.20;99.90;;;;;;5094600;28;20453;-76
2022/06/16 00:20:08;;;;;;;6.50;3.80;;;20.20;99.90;;;;;;5088062;28;21050;-76
2022/06/16 00:22:35;;;;;;;3.90;3.60;;;20.20;99.90;;;;;;5094988;28;20466;-76
2022/06/16 00:25:02;;;;;;;12.47;3.90;;;20.10;99.90;;;;;;5093942;28;20446;-76
2022/06/16 00:27:28;;;;;;;6.97;3.90;;;20.00;99.90;;;;;;5083676;28;20861;-76
2022/06/16 00:29:55;;;;;;;5.80;4.20;;;20.00;99.90;;;;;;5075443;28;20487;-76
2022/06/16 00:32:22;;;;;;;4.57;3.60;;;20.00;99.90;;;;;;5074406;28;20489;-76
2022/06/16 00:34:50;;;;;;;4.27;3.50;;;20.00;99.90;;;;;;5076688;28;20455;-76
2022/06/16 00:37:17;;;;;;;7.00;3.97;;;19.90;99.90;;;;;;5079608;28;20957;-76
2022/06/16 00:39:43;;;;;;;6.57;4.30;;;19.80;99.90;;;;;;5088116;28;20447;-76
2022/06/16 00:42:12;;;;;;;7.30;3.67;;;19.80;99.90;;;;;;5094936;28;20856;-76
2022/06/16 00:44:42;;;;;;;7.53;4.20;;;19.80;99.90;;;;;;5093766;28;20463;-76
2022/06/16 00:47:09;;;;;;;5.60;4.37;;;19.70;99.90;;;;;;5093221;28;20462;-76
2022/06/16 00:49:39;;;;;;;9.90;3.73;;;19.70;99.90;;;;;;5084228;28;20486;-76
2022/06/16 00:52:11;;;;;;;5.97;3.80;;;19.70;99.90;;;;;;5083986;28;20455;-76
2022/06/16 00:54:42;;;;;;;7.37;3.93;;;19.70;99.90;;;;;;5073325;28;20876;-76
2022/06/16 00:57:13;;;;;;;8.10;4.13;;;19.70;99.90;;;;;;5075598;28;20459;-76
2022/06/16 00:59:41;;;;;;;10.87;4.00;;;19.70;99.90;;;;;;5073882;28;20466;-76
2022/06/16 01:02:09;;;;;;;6.87;3.73;;;19.70;99.90;;;;;;5074042;28;20454;-76
2022/06/16 01:04:55;;;;;;;4.50;3.70;;;19.60;99.90;;;;;;5074729;28;20502;-76
2022/06/16 01:07:26;;;;;;;9.03;4.00;;;19.60;99.90;;;;;;5092820;28;20463;-76
2022/06/16 01:09:55;;;;;;;7.37;5.50;;;19.60;99.90;;;;;;5093701;28;20518;-76
2022/06/16 01:15:46;;;;;;;5.73;4.17;;;19.50;99.90;;;;;;5058689;28;20438;-76
2022/06/16 01:18:21;;;;;;;4.57;3.87;;;19.40;99.90;;;;;;5093027;28;20512;-76
2022/06/16 01:20:53;;;;;;;5.40;3.43;;;19.40;99.90;;;;;;5091971;28;20462;-76
2022/06/16 01:23:59;;;;;;;5.27;3.90;;;19.30;99.90;;;;;;5087699;28;20556;-76
2022/06/16 01:26:49;;;;;;;6.53;4.00;;;19.30;99.90;;;;;;5083019;28;20433;-76
2022/06/16 01:29:25;;;;;;;8.43;4.23;;;19.30;99.90;;;;;;5077237;28;20458;-76
2022/06/16 01:31:57;;;;;;;5.10;3.50;;;19.30;99.90;;;;;;5073286;28;20943;-76
2022/06/16 01:34:33;;;;;;;4.97;3.80;;;19.30;99.90;;;;;;5073962;28;20505;-76
2022/06/16 01:37:08;;;;;;;4.50;3.90;;;19.20;99.90;;;;;;5087390;28;20531;-76
2022/06/16 01:39:43;;;;;;;5.07;3.57;;;19.20;99.90;;;;;;5081952;28;20447;-76
2022/06/16 01:42:16;;;;;;;7.80;3.90;;;19.20;99.90;;;;;;5074094;28;20806;-76
2022/06/16 01:44:53;;;;;;;4.60;3.90;;;19.10;99.90;;;;;;5089715;28;20855;-76
2022/06/16 01:47:21;;;;;;;6.37;4.27;;;19.10;99.90;;;;;;5086021;28;20459;-76
2022/06/16 01:49:52;;;;;;;8.03;4.07;;;19.10;99.90;;;;;;5072758;28;20536;-76
2022/06/16 01:52:25;;;;;;;4.77;3.63;;;19.10;99.90;;;;;;5072504;28;20476;-76
2022/06/16 01:54:57;;;;;;;7.23;4.00;;;19.00;99.90;;;;;;5090230;28;20429;-76
2022/06/16 01:57:29;;;;;;;7.60;4.20;;;19.00;99.90;;;;;;5092245;28;20491;-76
2022/06/16 02:00:02;;;;;;;8.27;4.20;;;18.90;99.90;;;;;;5088335;28;20495;-76
2022/06/16 02:02:33;;;;;;;5.43;3.53;;;18.90;99.90;;;;;;5092439;28;20451;-76
2022/06/16 02:05:06;;;;;;;6.37;4.27;;;18.80;99.90;;;;;;5072439;28;20447;-76
2022/06/16 02:07:36;;;;;;;4.97;3.83;;;18.80;99.90;;;;;;5077383;28;20506;-76
2022/06/16 02:10:10;;;;;;;5.30;3.90;;;18.80;99.90;;;;;;5091148;28;20486;-76
2022/06/16 02:12:56;;;;;;;6.70;4.10;;;18.80;99.90;;;;;;5092660;28;20446;-76
2022/06/16 02:15:31;;;;;;;4.50;3.73;;;18.70;99.90;;;;;;5074010;28;20435;-76
2022/06/16 02:17:59;;;;;;;6.97;3.80;;;18.60;99.90;;;;;;5092740;28;20578;-76
2022/06/16 02:20:31;;;;;;;5.57;4.10;;;18.60;99.90;;;;;;5091218;28;20566;-76
2022/06/16 02:22:58;;;;;;;3.93;3.63;;;18.60;99.90;;;;;;5087730;28;20430;-76
2022/06/16 02:25:25;;;;;;;8.37;4.60;;;18.60;99.90;;;;;;5074201;28;20889;-76
2022/06/16 02:27:51;;;;;;;4.83;4.07;;;18.50;99.90;;;;;;5092173;28;20880;-76
2022/06/16 02:30:18;;;;;;;8.07;4.30;;;18.50;99.90;;;;;;5073570;28;20488;-76
2022/06/16 02:32:55;;;;;;;6.30;4.20;;;18.50;99.90;;;;;;5072838;28;20456;-76
2022/06/16 02:35:31;;;;;;;5.43;4.03;;;18.40;99.90;;;;;;5075232;28;20487;-76
2022/06/16 02:38:09;;;;;;;7.87;3.50;;;18.40;99.90;;;;;;5078705;28;20501;-76
2022/06/16 02:40:50;;;;;;;4.77;3.70;;;18.40;99.90;;;;;;5071542;28;20545;-76
2022/06/16 02:43:32;;;;;;;6.27;4.50;;;18.40;99.90;;;;;;5076207;28;20458;-76
2022/06/16 02:46:06;;;;;;;5.93;3.90;;;18.40;99.90;;;;;;5091435;28;20563;-76
2022/06/16 02:48:40;;;;;;;6.10;4.00;;;18.30;99.90;;;;;;5071518;28;20433;-76
2022/06/16 02:51:14;;;;;;;10.53;4.47;;;18.30;99.90;;;;;;5071412;28;20537;-76
2022/06/16 02:53:46;;;;;;;10.67;3.73;;;18.20;99.90;;;;;;5072862;28;20451;-76
2022/06/16 02:56:29;;;;;;;5.60;4.27;;;18.20;99.90;;;;;;5076067;28;20455;-76
2022/06/16 02:58:59;;;;;;;4.60;3.73;;;18.20;99.90;;;;;;5071588;28;20956;-76
2022/06/16 03:01:27;;;;;;;8.87;4.10;;;18.10;99.90;;;;;;5071554;28;20463;-76
2022/06/16 03:04:07;;;;;;;6.00;4.30;;;18.10;99.90;;;;;;5072463;28;20447;-76
2022/06/16 03:06:34;;;;;;;5.10;4.00;;;18.10;99.90;;;;;;5083427;28;20455;-76
2022/06/16 03:09:04;;;;;;;6.50;4.00;;;18.10;99.90;;;;;;5085008;28;20509;-76
2022/06/16 03:11:31;;;;;;;4.57;4.10;;;18.10;99.90;;;;;;5081116;28;20479;-76
2022/06/16 03:13:58;;;;;;;10.20;4.20;;;18.10;99.90;;;;;;5079752;28;21222;-76
2022/06/16 03:16:25;;;;;;;6.33;4.23;;;18.00;99.90;;;;;;5081987;28;20425;-76
2022/06/16 03:18:52;;;;;;;6.40;4.43;;;18.00;99.90;;;;;;5083419;28;20498;-76
2022/06/16 03:21:20;;;;;;;5.37;4.00;;;18.00;99.90;;;;;;5091577;28;20441;-76
2022/06/16 03:23:47;;;;;;;4.60;4.30;;;17.90;99.90;;;;;;5082345;28;20506;-76
2022/06/16 03:26:13;;;;;;;5.90;4.43;;;17.90;99.90;;;;;;5079603;28;20429;-76
2022/06/16 03:28:40;;;;;;;6.03;4.33;;;17.90;99.90;;;;;;5082579;28;20509;-76
2022/06/16 03:31:07;;;;;;;5.67;4.30;;;17.80;99.90;;;;;;5071354;28;20465;-76
2022/06/16 03:33:34;;;;;;;6.73;4.40;;;17.90;99.90;;;;;;5078854;28;20875;-76
2022/06/16 03:36:01;;;;;;;6.40;3.87;;;17.90;99.90;;;;;;5089276;28;20432;-76
2022/06/16 03:38:33;;;;;;;10.90;4.33;;;17.90;99.90;;;;;;5089393;28;20493;-76
2022/06/16 03:40:59;;;;;;;4.93;4.43;;;17.90;99.90;;;;;;5073827;28;20562;-76
2022/06/16 03:43:26;;;;;;;7.00;3.97;;;17.90;99.90;;;;;;5088795;28;21012;-76
2022/06/16 03:45:53;;;;;;;12.93;4.40;;;17.90;99.90;;;;;;5081385;28;20425;-76
2022/06/16 03:48:19;;;;;;;4.60;4.20;;;17.90;99.90;;;;;;5079053;28;20451;-76
2022/06/16 03:50:46;;;;;;;4.90;4.40;;;17.90;99.90;;;;;;5074855;28;20889;-76
2022/06/16 03:53:13;;;;;;;4.27;3.90;;;17.90;99.90;;;;;;5074921;28;20928;-76
2022/06/16 03:55:41;;;;;;;7.77;4.30;;;17.80;99.90;;;;;;5093300;28;20508;-76
2022/06/16 03:58:08;;;;;;;4.50;3.60;;;17.80;99.90;;;;;;5084574;28;20875;-76
2022/06/16 04:00:35;;;;;;;7.47;4.33;;;17.80;99.90;;;;;;5074826;28;20567;-77
2022/06/16 04:05:46;;;;;;;4.73;4.33;;;17.80;99.90;;;;;;5079796;28;20796;-76
2022/06/16 04:08:14;;;;;;;7.97;5.27;;;17.90;99.90;;;;;;5095321;28;20429;-77
2022/06/16 04:10:42;;;;;;;4.90;4.33;;;17.90;99.90;;;;;;5074581;28;20548;-76
2022/06/16 04:13:09;;;;;;;5.73;4.30;;;17.90;99.90;;;;;;5087178;28;20434;-76
2022/06/16 04:15:36;;;;;;;6.70;4.10;;;17.90;99.90;;;;;;5078274;28;20429;-76
2022/06/16 04:18:03;;;;;;;4.57;4.10;;;17.90;99.90;;;;;;5094607;28;20547;-76
2022/06/16 04:20:30;;;;;;;5.17;4.00;;;17.90;99.90;;;;;;5094829;28;20448;-77
2022/06/16 04:22:57;;;;;;;9.47;4.70;;;17.90;99.90;;;;;;5094155;28;20432;-76
2022/06/16 04:25:30;;;;;;;4.97;3.87;;;17.90;99.90;;;;;;5076420;28;20441;-76
2022/06/16 04:27:58;;;;;;;5.23;4.10;;;17.90;99.90;;;;;;5093533;28;20951;-76
2022/06/16 04:30:25;;;;;;;5.50;4.50;;;17.90;99.90;;;;;;5094030;28;20486;-77
2022/06/16 04:32:52;;;;;;;5.60;4.40;;;17.90;99.90;;;;;;5091835;28;20421;-77
2022/06/16 04:35:19;;;;;;;7.87;3.97;;;17.90;99.90;;;;;;5078512;28;20426;-77
2022/06/16 04:37:45;;;;;;;9.27;4.57;;;17.90;99.90;;;;;;5074214;28;20836;-76
2022/06/16 04:40:12;;;;;;;10.40;4.57;;;17.90;99.90;;;;;;5076017;28;20442;-76
2022/06/16 04:42:39;;;;;;;11.33;4.67;;;17.90;99.90;;;;;;5075044;28;20421;-76
2022/06/16 04:45:10;;;;;;;5.30;4.10;;;18.00;99.90;;;;;;5089185;28;20433;-76
2022/06/16 04:47:37;;;;;;;6.50;4.13;;;18.00;99.90;;;;;;5076512;28;20510;-76
2022/06/16 04:50:04;;;;;;;6.27;4.20;;;18.00;99.90;;;;;;5073559;28;20571;-76
2022/06/16 04:52:31;;;;;;;9.10;4.20;;;18.00;99.90;;;;;;5074943;28;21000;-77
2022/06/16 04:54:57;;;;;;;5.43;4.47;;;18.10;99.90;;;;;;5089036;28;20451;-76
2022/06/16 04:57:24;;;;;;;8.70;4.33;;;18.10;99.90;;;;;;5088448;28;20426;-77
2022/06/16 04:59:51;;;;;;;6.20;4.00;;;18.20;99.90;;;;;;5073571;28;21017;-76
2022/06/16 05:02:19;;;;;;;6.60;4.37;;;18.20;99.90;;;;;;5088234;28;20500;-76
2022/06/16 05:04:45;;;;;;;6.90;4.07;;;18.30;99.90;;;;;;5073803;28;20426;-77
2022/06/16 05:07:12;;;;;;;7.10;4.40;;;18.30;99.90;;;;;;5090797;28;20838;-76
2022/06/16 05:09:39;;;;;;;7.30;4.00;;;18.40;99.90;;;;;;5081525;28;20450;-77
2022/06/16 05:12:07;;;;;;;6.30;4.80;;;18.50;99.90;;;;;;5087015;28;20542;-76
2022/06/16 05:14:33;;;;;;;4.70;4.20;;;18.60;99.90;;;;;;5074748;28;20452;-76
2022/06/16 05:17:00;;;;;;;6.00;4.10;;;18.60;99.90;;;;;;5088964;28;20434;-76
2022/06/16 05:19:30;;;;;;;7.93;4.37;;;18.70;99.90;;;;;;5086258;28;20979;-76
2022/06/16 05:21:58;;;;;;;7.10;4.20;;;18.70;99.90;;;;;;5093220;28;20520;-76
2022/06/16 05:24:25;;;;;;;8.87;4.50;;;18.70;99.90;;;;;;5091297;28;20825;-77
2022/06/16 05:26:51;;;;;;;4.77;4.27;;;18.80;99.90;;;;;;5092107;28;20500;-76
2022/06/16 05:29:19;;;;;;;5.90;4.30;;;18.80;99.90;;;;;;5092947;28;20458;-76
2022/06/16 05:31:46;;;;;;;11.47;5.57;;;18.80;99.90;;;;;;5083489;28;20538;-78
2022/06/16 05:34:13;;;;;;;8.00;4.90;;;18.90;99.90;;;;;;5082480;28;20459;-77
2022/06/16 05:36:43;;;;;;;9.43;4.70;;;18.90;99.90;;;;;;5092923;28;20953;-81
2022/06/16 05:39:10;;;;;;;5.40;4.13;;;19.00;99.90;;;;;;5095324;28;20474;-78
2022/06/16 05:41:36;;;;;;;5.10;4.00;;;19.00;99.90;;;;;;5086468;28;21023;-78
2022/06/16 05:44:04;;;;;;;5.23;3.90;;;19.10;99.90;;;;;;5086851;28;20562;-78
2022/06/16 05:46:31;;;;;;;6.67;4.77;;;19.10;99.90;;;;;;5094409;28;20417;-77
2022/06/16 05:48:58;;;;;;;10.20;4.27;;;19.20;99.90;;;;;;5089204;28;20452;-78
2022/06/16 05:51:24;;;;;;;4.93;4.20;;;19.20;99.90;;;;;;5077427;28;20875;-78
2022/06/16 05:53:53;;;;;;;11.57;4.63;;;19.20;99.90;;;;;;5094456;28;20498;-78
2022/06/16 05:56:20;;;;;;;4.50;4.10;;;19.20;99.90;;;;;;5086982;28;20425;-78
2022/06/16 05:58:46;;;;;;;5.60;4.53;;;19.30;99.90;;;;;;5079646;28;20959;-78
2022/06/16 06:01:14;;;;;;;5.03;4.20;;;19.40;99.90;;;;;;5078864;28;20515;-78
2022/06/16 06:03:42;;;;;;;7.47;4.50;;;19.40;99.90;;;;;;5093751;28;20950;-78
2022/06/16 06:06:10;;;;;;;7.23;5.00;;;19.50;99.90;;;;;;5080889;28;20422;-77
2022/06/16 06:16:58;;;;;;;5.43;4.60;;;19.70;99.90;;;;;;5089508;28;20465;-78
2022/06/16 06:19:25;;;;;;;9.13;4.97;;;19.70;99.90;;;;;;5087474;28;20455;-73
2022/06/16 06:22:00;;;;;;;6.37;4.67;;;19.60;99.90;;;;;;5091506;28;20839;-73
2022/06/16 06:24:28;;;;;;;7.50;4.20;;;19.70;99.90;;;;;;5086424;28;20548;-74
2022/06/16 06:26:57;;;;;;;9.70;4.70;;;19.80;99.90;;;;;;5085893;28;20581;-80
2022/06/16 06:29:24;;;;;;;7.37;4.43;;;19.80;99.90;;;;;;5086167;28;20858;-84
2022/06/16 06:31:51;;;;;;;6.30;4.40;;;19.90;99.90;;;;;;5075879;28;20507;-85
2022/06/16 06:34:18;;;;;;;5.47;4.20;;;20.00;99.90;;;;;;5090608;28;20545;-82
2022/06/16 06:36:45;;;;;;;7.93;4.23;;;20.10;99.90;;;;;;5099829;28;20443;-83
2022/06/16 06:39:12;;;;;;;8.20;3.93;;;20.20;99.90;;;;;;5094602;28;20459;-86
2022/06/16 06:41:39;;;;;;;7.90;4.20;;;20.20;99.90;;;;;;5092076;28;20883;-76
2022/06/16 06:44:08;;;;;;;4.30;3.90;;;20.40;99.90;;;;;;5084354;28;20875;-82
2022/06/16 06:46:35;;;;;;;4.33;3.93;;;20.70;99.90;;;;;;5091698;28;21015;-79
2022/06/16 06:49:02;;;;;;;6.60;4.40;;;20.90;99.90;;;;;;5085258;28;20451;-77
2022/06/16 06:51:30;;;;;;;4.80;4.30;;;20.90;99.90;;;;;;5094629;28;20488;-79
2022/06/16 06:53:57;;;;;;;7.60;4.50;;;20.90;99.90;;;;;;5085312;28;20455;-79
2022/06/16 06:56:24;;;;;;;7.10;3.90;;;21.10;99.90;;;;;;5074017;28;20799;-78
2022/06/16 06:58:52;;;;;;;6.20;4.03;;;21.20;99.90;;;;;;5072860;28;20455;-78
2022/06/16 07:01:20;;;;;;;4.80;4.30;;;21.30;99.90;;;;;;5074262;28;20471;-76
2022/06/16 07:03:47;;;;;;;7.10;4.10;;;21.30;99.90;;;;;;5091529;28;20442;-76
2022/06/16 07:06:14;;;;;;;4.57;4.07;;;21.40;99.90;;;;;;5092750;28;20478;-77
2022/06/16 07:08:41;;;;;;;6.70;4.67;;;21.70;99.90;;;;;;5081255;28;20452;-77
2022/06/16 07:11:07;;;;;;;5.50;4.07;;;21.90;99.90;;;;;;5081530;28;20483;-80
2022/06/16 07:13:34;;;;;;;9.60;4.10;;;22.20;99.90;;;;;;5098995;28;20451;-80
2022/06/16 07:16:01;;;;;;;11.60;4.37;;;22.30;99.90;;;;;;5098694;28;20499;-76
2022/06/16 07:18:29;;;;;;;7.70;4.20;;;22.40;99.90;;;;;;5092873;28;20868;-79
2022/06/16 07:20:56;;;;;;;6.37;4.30;;;22.60;99.90;;;;;;5074971;28;20525;-76
2022/06/16 07:23:23;;;;;;;6.27;3.70;;;22.80;99.90;;;;;;5091551;28;20446;-77
2022/06/16 07:25:51;;;;;;;5.97;4.63;;;22.80;99.90;;;;;;5091777;28;20503;-77
2022/06/16 07:28:18;;;;;;;6.32;3.38;;;22.80;99.90;;;;;;5091155;28;20429;-79
2022/06/16 07:30:45;;;;;;;5.63;4.00;;;22.80;99.90;;;;;;5092606;28;20309;-79
2022/06/16 07:33:13;;;;;;;7.47;4.20;;;22.80;99.90;;;;;;5086904;28;20505;-79
2022/06/16 07:35:43;;;;;;;6.50;4.20;;;22.80;99.90;;;;;;5073431;28;20534;-79
2022/06/16 07:38:10;;;;;;;6.10;4.10;;;23.00;99.90;;;;;;5094817;28;20530;-80
2022/06/16 07:40:37;;;;;;;4.67;3.57;;;23.20;99.90;;;;;;5095809;28;20474;-79
2022/06/16 07:43:04;;;;;;;9.33;3.70;;;23.40;99.90;;;;;;5094312;28;20504;-80
2022/06/16 07:45:31;;;;;;;4.03;3.70;;;23.70;99.90;;;;;;5095804;28;20447;-80
2022/06/16 07:48:01;;;;;;;6.60;3.70;;;24.00;99.90;;;;;;5095056;28;20455;-81
2022/06/16 07:50:28;;;;;;;12.00;4.27;;;24.10;99.90;;;;;;5094070;28;20486;-80
2022/06/16 07:52:56;;;;;;;5.07;3.90;;;24.30;99.90;;;;;;5095676;28;20455;-80
2022/06/16 07:55:22;;;;;;;4.50;3.97;;;24.40;99.90;;;;;;5083096;28;20474;-81
2022/06/16 07:57:51;;;;;;;4.73;3.70;;;24.50;99.90;;;;;;5094642;28;20458;-80
2022/06/16 08:00:20;;;;;;;7.60;4.10;;;24.60;99.90;;;;;;5095112;28;20486;-80
2022/06/16 08:02:46;;;;;;;8.20;4.00;;;24.70;99.90;;;;;;5095477;28;20446;-79
2022/06/16 08:05:14;;;;;;;5.80;3.70;;;24.80;99.90;;;;;;5094557;28;20801;-80
2022/06/16 08:07:42;;;;;;;5.93;3.50;;;25.00;99.90;;;;;;5094802;28;20450;-79
2022/06/16 08:10:13;;;;;;;4.33;3.50;;;25.10;99.90;;;;;;5087032;28;20990;-79
2022/06/16 08:12:41;;;;;;;4.53;3.23;;;25.20;99.90;;;;;;5091639;28;20442;-79
2022/06/16 08:15:08;;;;;;;5.70;3.87;;;25.40;99.90;;;;;;5094136;28;20476;-79
2022/06/16 08:17:37;;;;;;;4.27;3.70;;;25.40;99.90;;;;;;5092782;28;20475;-80
2022/06/16 08:20:05;;;;;;;3.80;2.93;;;25.30;99.90;;;;;;5092663;28;21055;-78
2022/06/16 08:22:33;;;;;;;11.40;4.00;;;25.40;99.90;;;;;;5094480;28;20443;-80
2022/06/16 08:25:00;;;;;;;13.10;3.43;;;25.50;99.90;;;;;;5092030;28;20463;-80
2022/06/16 08:27:32;;;;;;;11.10;4.40;;;25.60;99.90;;;;;;5093053;28;20500;-81
2022/06/16 08:29:59;;;;;;;5.23;3.53;;;25.70;99.90;;;;;;5095326;28;21089;-80
2022/06/16 08:32:26;;;;;;;7.87;3.80;;;25.70;99.90;;;;;;5095451;28;20619;-79
2022/06/16 08:34:53;;;;;;;13.00;3.83;;;26.00;99.90;;;;;;5075953;28;20746;-78
2022/06/16 08:37:21;;;;;;;5.00;3.30;;;26.10;99.90;;;;;;5075462;28;20451;-80
2022/06/16 08:39:48;;;;;;;13.50;3.70;;;26.10;99.90;;;;;;5092221;28;20493;-79
2022/06/16 08:42:22;;;;;;;4.13;3.20;;;26.20;99.90;;;;;;5096731;28;20450;-79
2022/06/16 08:44:58;;;;;;;8.93;3.70;;;26.50;99.90;;;;;;5096975;28;20512;-78
2022/06/16 08:47:33;;;;;;;8.77;3.23;;;26.70;99.90;;;;;;5095756;28;20461;-78
2022/06/16 08:50:09;;;;;;;9.40;4.00;;;26.80;99.90;;;;;;5096417;28;20481;-79
2022/06/16 08:52:43;;;;;;;6.33;3.57;;;26.80;99.90;;;;;;5096505;28;20535;-78
2022/06/16 08:55:15;;;;;;;4.87;3.73;;;26.60;99.90;;;;;;5076480;28;20452;-78
2022/06/16 08:57:55;;;;;;;4.53;3.27;;;26.70;99.90;;;;;;5088790;28;20885;-77
2022/06/16 09:00:31;;;;;;;5.23;3.67;;;26.80;99.90;;;;;;5097519;28;20470;-79
2022/06/16 09:03:01;;;;;;;4.47;2.90;;;27.20;99.90;;;;;;5097250;28;20541;-79
2022/06/16 09:05:40;;;;;;;10.27;3.90;;;27.50;99.90;;;;;;5096972;28;20529;-79
2022/06/16 09:08:17;;;;;;;6.53;4.07;;;27.80;99.90;;;;;;5096429;28;20859;-79
2022/06/16 09:10:49;;;;;;;10.10;3.70;;;27.80;99.20;;;;;;5096368;28;20524;-78
2022/06/16 09:13:35;;;;;;;6.83;3.63;;;27.90;98.80;;;;;;5076079;28;20497;-78
2022/06/16 09:16:19;;;;;;;5.63;3.07;;;27.80;99.30;;;;;;5075615;28;20535;-79
2022/06/16 09:19:02;;;;;;;8.67;3.10;;;27.70;99.00;;;;;;5077998;28;20925;-81
2022/06/16 09:21:38;;;;;;;5.40;3.17;;;27.80;98.90;;;;;;5090373;28;20467;-79
2022/06/16 09:24:21;;;;;;;9.13;3.33;;;28.20;98.20;;;;;;5085705;28;21030;-77
2022/06/16 09:26:53;;;;;;;5.80;3.40;;;28.30;97.30;;;;;;5093117;28;20450;-77
2022/06/16 09:29:25;;;;;;;6.90;3.50;;;28.00;95.60;;;;;;5094322;28;20454;-78
2022/06/16 09:31:59;;;;;;;6.30;3.43;;;27.90;97.10;;;;;;5088562;28;20495;-79
2022/06/16 09:34:32;;;;;;;5.47;3.90;;;28.00;97.00;;;;;;5083168;28;21011;-79
2022/06/16 09:37:03;;;;;;;7.20;3.13;;;28.10;97.60;;;;;;5074866;28;20818;-78
2022/06/16 09:39:34;;;;;;;4.13;3.30;;;28.40;96.30;;;;;;5086353;28;20469;-79
2022/06/16 09:44:57;;;;;;;4.57;3.57;;;28.70;95.50;;;;;;5094495;28;20426;-79
2022/06/16 09:47:28;;;;;;;3.27;2.97;;;28.60;95.30;;;;;;5092226;28;20463;-79
2022/06/16 09:50:01;;;;;;;4.53;3.40;;;28.80;96.00;;;;;;5093546;28;20467;-79
2022/06/16 09:52:35;;;;;;;10.47;3.40;;;29.10;94.90;;;;;;5084603;28;20920;-79
2022/06/16 09:55:06;;;;;;;3.60;3.30;;;29.20;93.80;;;;;;5092857;28;21025;-79
2022/06/16 09:57:38;;;;;;;4.57;3.20;;;28.90;94.60;;;;;;5093698;28;20446;-79
2022/06/16 10:00:10;;;;;;;6.20;3.83;;;28.90;94.70;;;;;;5084406;28;20475;-78
2022/06/16 10:02:45;;;;;;;5.60;3.70;;;28.80;94.90;;;;;;5090182;28;20455;-78
2022/06/16 10:05:15;;;;;;;5.70;3.37;;;28.90;95.20;;;;;;5092969;28;20504;-78
2022/06/16 10:07:54;;;;;;;7.53;3.43;;;28.90;95.30;;;;;;5091745;28;20451;-78
2022/06/16 10:10:25;;;;;;;6.53;3.43;;;29.10;94.40;;;;;;5093179;28;20477;-80
2022/06/16 10:12:57;;;;;;;4.83;3.13;;;29.30;94.90;;;;;;5094427;28;20483;-79
2022/06/16 10:15:32;;;;;;;8.33;3.30;;;29.60;94.50;;;;;;5089626;28;20818;-80
2022/06/16 10:18:00;;;;;;;5.97;3.70;;;29.90;94.00;;;;;;5081115;28;20447;-80
2022/06/16 10:20:29;;;;;;;8.50;3.50;;;29.90;93.90;;;;;;5079273;28;20467;-80
2022/06/16 10:23:01;;;;;;;10.63;3.63;;;30.00;93.70;;;;;;5095495;28;20450;-81
2022/06/16 10:25:30;;;;;;;6.13;3.60;;;30.10;93.70;;;;;;5097665;28;20446;-80
2022/06/16 10:28:00;;;;;;;6.70;3.90;;;30.10;93.20;;;;;;5097139;28;20824;-79
2022/06/16 10:30:34;;;;;;;3.67;3.13;;;30.10;93.30;;;;;;5096223;28;20880;-80
2022/06/16 10:33:12;;;;;;;7.57;3.57;;;29.90;93.80;;;;;;5095047;28;20489;-80
2022/06/16 10:35:47;;;;;;;5.33;3.47;;;30.10;93.90;;;;;;5094953;28;20524;-80
2022/06/16 10:38:20;;;;;;;6.10;3.60;;;30.10;93.30;;;;;;5095581;28;20454;-78
2022/06/16 10:40:47;;;;;;;5.63;3.73;;;30.00;93.40;;;;;;5097951;28;20470;-81
2022/06/16 10:43:16;;;;;;;3.97;3.37;;;30.00;93.20;;;;;;5096420;28;20508;-81
2022/06/16 10:45:43;;;;;;;4.77;3.60;;;30.10;94.10;;;;;;5096948;28;20922;-80
2022/06/16 10:48:19;;;;;;;4.40;3.40;;;30.20;93.50;;;;;;5094530;28;20456;-79
2022/06/16 10:50:50;;;;;;;7.70;3.60;;;30.50;93.50;;;;;;5075521;28;20488;-80
2022/06/16 10:53:28;;;;;;;6.00;3.90;;;30.70;93.10;;;;;;5088553;28;20495;-78
2022/06/16 10:56:01;;;;;;;7.20;3.60;;;30.60;92.30;;;;;;5075286;28;20455;-80
2022/06/16 10:58:31;;;;;;;7.73;3.73;;;30.50;91.20;;;;;;5079645;28;20533;-80
2022/06/16 11:01:06;;;;;;;7.43;3.67;;;30.30;92.90;;;;;;5088811;28;20605;-78
2022/06/16 11:03:44;;;;;;;3.93;3.20;;;30.30;93.60;;;;;;5084769;28;20496;-79
2022/06/16 11:06:13;;;;;;;3.30;3.00;;;30.40;93.40;;;;;;5093682;28;20929;-79
2022/06/16 11:08:45;;;;;;;8.53;3.60;;;30.50;91.80;;;;;;5090228;28;20446;-77
2022/06/16 11:11:12;;;;;;;4.33;3.13;;;30.60;92.90;;;;;;5090550;28;20500;-77
2022/06/16 11:13:48;;;;;;;6.00;3.90;;;30.80;92.20;;;;;;5071781;28;20506;-80
2022/06/16 11:16:26;;;;;;;5.83;3.30;;;30.70;91.00;;;;;;5085474;28;21008;-79
2022/06/16 11:18:58;;;;;;;6.17;3.77;;;30.50;90.90;;;;;;5097578;28;20985;-79
2022/06/16 11:21:28;;;;;;;6.37;3.60;;;30.50;91.20;;;;;;5095962;28;20545;-78
2022/06/16 11:23:58;;;;;;;4.60;3.27;;;30.40;91.00;;;;;;5103574;28;20458;-79
2022/06/16 11:26:28;;;;;;;7.70;2.87;;;30.50;90.90;;;;;;5105119;28;20476;-79
2022/06/16 11:28:58;;;;;;;6.77;3.77;;;30.50;90.00;;;;;;5095829;28;20985;-79
2022/06/16 11:31:40;;;;;;;13.93;4.20;;;30.60;89.30;;;;;;5104366;28;20471;-80
2022/06/16 11:34:13;;;;;;;4.07;2.70;;;30.70;89.90;;;;;;5087890;28;20923;-81
2022/06/16 11:37:00;;;;;;;3.30;2.97;;;30.80;86.10;;;;;;5076430;28;20447;-80
2022/06/16 11:39:37;;;;;;;6.10;3.00;;;31.00;86.50;;;;;;5074210;28;20467;-81
2022/06/16 11:42:10;;;;;;;4.33;2.53;;;30.60;82.70;;;;;;5078190;28;20882;-80
2022/06/16 11:44:49;;;;;;;5.17;2.50;;;30.60;84.30;;;;;;5077977;28;20498;-81
2022/06/16 11:47:27;;;;;;;5.33;2.13;;;31.00;85.00;;;;;;5084993;28;20442;-80
2022/06/16 11:50:04;;;;;;;3.00;2.00;;;31.10;82.20;;;;;;5099786;28;20470;-80
2022/06/16 11:52:49;;;;;;;3.63;1.90;;;31.20;81.80;;;;;;5096950;28;20487;-81
2022/06/16 11:55:27;;;;;;;8.90;2.40;;;31.30;80.90;;;;;;5098574;28;20451;-80
2022/06/16 11:58:00;;;;;;;3.77;2.07;;;31.40;81.50;;;;;;5097836;28;20481;-80
2022/06/16 12:00:33;;;;;;;4.20;2.40;;;31.50;79.70;;;;;;5099981;28;20877;-81
2022/06/16 12:03:23;;;;;;;3.53;2.33;;;31.50;78.20;;;;;;5098895;28;20439;-80
2022/06/16 12:06:13;;;;;;;6.90;2.30;;;31.50;79.00;;;;;;5104406;28;20476;-80
2022/06/16 12:08:56;;;;;;;4.90;2.17;;;31.40;78.80;;;;;;5101964;28;20957;-80
2022/06/16 12:11:30;;;;;;;2.47;2.13;;;31.20;77.10;;;;;;5083818;28;20475;-77
2022/06/16 12:14:06;;;;;;;2.87;1.80;;;31.30;78.90;;;;;;5085125;28;20477;-80
2022/06/16 12:16:40;;;;;;;2.50;2.30;;;31.20;76.30;;;;;;5100087;28;20450;-80
2022/06/16 12:19:15;;;;;;;8.77;2.20;;;30.80;77.10;;;;;;5098347;28;20429;-81
2022/06/16 12:21:48;;;;;;;7.20;2.63;;;30.80;77.00;;;;;;5102926;28;20499;-81
2022/06/16 12:24:25;;;;;;;4.00;2.30;;;30.60;79.00;;;;;;5096463;28;20446;-79
2022/06/16 12:27:02;;;;;;;3.83;2.43;;;30.70;78.70;;;;;;5094364;28;20446;-79
2022/06/16 12:29:45;;;;;;;7.30;2.90;;;30.90;78.20;;;;;;5094065;28;20493;-79
2022/06/16 12:32:27;;;;;;;4.27;2.30;;;31.10;78.70;;;;;;5094014;28;20486;-80
2022/06/16 12:35:04;;;;;;;5.30;2.20;;;31.30;76.80;;;;;;5073906;28;20490;-78
2022/06/16 12:37:37;;;;;;;4.53;2.10;;;31.40;77.20;;;;;;5073057;28;20491;-76
2022/06/16 12:40:11;;;;;;;2.50;2.20;;;31.40;75.10;;;;;;5074161;28;20497;-80
2022/06/16 12:42:44;;;;;;;2.90;2.40;;;31.40;76.00;;;;;;5074156;28;20451;-80
2022/06/16 12:45:17;;;;;;;4.07;2.00;;;31.50;75.40;;;;;;5091110;28;20493;-79
2022/06/16 12:47:48;;;;;;;6.70;2.50;;;31.70;76.00;;;;;;5087947;28;20462;-78
2022/06/16 12:50:20;;;;;;;3.13;2.60;;;31.90;75.30;;;;;;5079296;28;21008;-80
2022/06/16 12:52:53;;;;;;;3.40;2.20;;;31.80;74.50;;;;;;5090013;28;20535;-79
2022/06/16 12:55:25;;;;;;;4.33;2.50;;;31.70;75.40;;;;;;5097050;28;20507;-80
2022/06/16 12:57:57;;;;;;;2.77;2.10;;;31.50;75.80;;;;;;5100073;28;20853;-79
2022/06/16 13:00:30;;;;;;;3.27;2.20;;;31.70;74.60;;;;;;5098838;28;20466;-80
2022/06/16 13:03:01;;;;;;;3.43;1.97;;;31.70;73.60;;;;;;5100159;28;20452;-77
2022/06/16 13:05:29;;;;;;;2.27;2.07;;;31.60;73.00;;;;;;5084330;28;20455;-80
2022/06/16 13:08:00;;;;;;;6.10;1.80;;;31.40;73.60;;;;;;5077291;28;20530;-79
2022/06/16 13:10:27;;;;;;;3.03;2.10;;;30.80;73.70;;;;;;5091066;28;20479;-80
2022/06/16 13:12:58;;;;;;;3.30;2.00;;;30.90;75.00;;;;;;5088776;28;20563;-80
2022/06/16 13:15:30;;;;;;;2.10;1.80;;;31.00;73.50;;;;;;5095896;28;20439;-79
2022/06/16 13:18:02;;;;;;;3.73;2.40;;;31.00;74.00;;;;;;5097310;28;21041;-80
2022/06/16 13:20:32;;;;;;;4.53;2.53;;;31.10;73.70;;;;;;5097083;28;20466;-81